sensor_id;sensor_type;location;lat;lon;timestamp;P1;durP1;ratioP1;P2;durP2;ratioP2
16354;SDS011;8287;51.644;8.494;2023-05-07T00:01:01;4.47;;;3.45;;
16354;SDS011;8287;51.644;8.494;2023-05-07T00:03:28;5.32;;;3.53;;
16354;SDS011;8287;51.644;8.494;2023-05-07T00:05:54;2.65;;;2.38;;
16354;SDS011;8287;51.644;8.494;2023-05-07T00:08:21;5.07;;;3.30;;
16354;SDS011;8287;51.644;8.494;2023-05-07T00:10:48;3.22;;;2.85;;
16354;SDS011;8287;51.644;8.494;2023-05-07T00:13:14;3.90;;;3.40;;
16354;SDS011;8287;51.644;8.494;2023-05-07T00:15:41;5.15;;;3.42;;
16354;SDS011;8287;51.644;8.494;2023-05-07T00:18:09;2.78;;;2.50;;
16354;SDS011;8287;51.644;8.494;2023-05-07T00:20:35;4.97;;;3.22;;
16354;SDS011;8287;51.644;8.494;2023-05-07T00:23:02;4.22;;;3.50;;
16354;SDS011;8287;51.644;8.494;2023-05-07T00:25:28;3.58;;;3.25;;
16354;SDS011;8287;51.644;8.494;2023-05-07T00:27:55;4.60;;;3.35;;
16354;SDS011;8287;51.644;8.494;2023-05-07T00:30:27;3.65;;;3.30;;
16354;SDS011;8287;51.644;8.494;2023-05-07T00:32:54;3.55;;;3.13;;
16354;SDS011;8287;51.644;8.494;2023-05-07T00:35:22;7.45;;;3.42;;
16354;SDS011;8287;51.644;8.494;2023-05-07T00:37:49;3.97;;;3.13;;
16354;SDS011;8287;51.644;8.494;2023-05-07T00:40:15;4.47;;;3.00;;
16354;SDS011;8287;51.644;8.494;2023-05-07T00:42:42;4.85;;;3.58;;
16354;SDS011;8287;51.644;8.494;2023-05-07T00:45:12;5.28;;;3.72;;
16354;SDS011;8287;51.644;8.494;2023-05-07T00:47:40;5.00;;;3.28;;
16354;SDS011;8287;51.644;8.494;2023-05-07T00:50:07;4.90;;;3.67;;
16354;SDS011;8287;51.644;8.494;2023-05-07T00:52:39;4.95;;;3.55;;
16354;SDS011;8287;51.644;8.494;2023-05-07T00:55:07;5.05;;;3.72;;
16354;SDS011;8287;51.644;8.494;2023-05-07T00:57:34;6.78;;;3.45;;
16354;SDS011;8287;51.644;8.494;2023-05-07T01:00:03;4.25;;;3.72;;
16354;SDS011;8287;51.644;8.494;2023-05-07T01:02:30;3.45;;;3.15;;
16354;SDS011;8287;51.644;8.494;2023-05-07T01:04:57;5.88;;;3.47;;
16354;SDS011;8287;51.644;8.494;2023-05-07T01:07:24;4.38;;;3.97;;
16354;SDS011;8287;51.644;8.494;2023-05-07T01:09:51;5.90;;;3.47;;
16354;SDS011;8287;51.644;8.494;2023-05-07T01:12:19;4.13;;;3.70;;
16354;SDS011;8287;51.644;8.494;2023-05-07T01:14:46;4.97;;;3.75;;
16354;SDS011;8287;51.644;8.494;2023-05-07T01:17:14;4.00;;;3.60;;
16354;SDS011;8287;51.644;8.494;2023-05-07T01:19:41;3.60;;;3.30;;
16354;SDS011;8287;51.644;8.494;2023-05-07T01:22:09;3.70;;;3.40;;
16354;SDS011;8287;51.644;8.494;2023-05-07T01:24:38;6.20;;;4.05;;
16354;SDS011;8287;51.644;8.494;2023-05-07T01:27:05;6.13;;;3.85;;
16354;SDS011;8287;51.644;8.494;2023-05-07T01:29:31;5.13;;;3.33;;
16354;SDS011;8287;51.644;8.494;2023-05-07T01:31:59;5.35;;;4.22;;
16354;SDS011;8287;51.644;8.494;2023-05-07T01:34:28;4.95;;;4.40;;
16354;SDS011;8287;51.644;8.494;2023-05-07T01:36:59;6.47;;;5.28;;
16354;SDS011;8287;51.644;8.494;2023-05-07T01:39:26;5.55;;;4.80;;
16354;SDS011;8287;51.644;8.494;2023-05-07T01:41:56;6.72;;;4.85;;
16354;SDS011;8287;51.644;8.494;2023-05-07T01:44:22;6.05;;;4.68;;
16354;SDS011;8287;51.644;8.494;2023-05-07T01:46:50;5.60;;;3.75;;
16354;SDS011;8287;51.644;8.494;2023-05-07T01:49:17;5.07;;;4.57;;
16354;SDS011;8287;51.644;8.494;2023-05-07T01:51:44;13.57;;;6.03;;
16354;SDS011;8287;51.644;8.494;2023-05-07T01:54:11;6.30;;;4.82;;
16354;SDS011;8287;51.644;8.494;2023-05-07T01:56:37;5.43;;;4.63;;
16354;SDS011;8287;51.644;8.494;2023-05-07T01:59:05;7.70;;;5.78;;
16354;SDS011;8287;51.644;8.494;2023-05-07T02:01:32;6.97;;;5.68;;
16354;SDS011;8287;51.644;8.494;2023-05-07T02:03:58;7.10;;;5.65;;
16354;SDS011;8287;51.644;8.494;2023-05-07T02:06:25;6.15;;;5.55;;
16354;SDS011;8287;51.644;8.494;2023-05-07T02:08:52;6.25;;;5.35;;
16354;SDS011;8287;51.644;8.494;2023-05-07T02:11:18;6.53;;;5.00;;
16354;SDS011;8287;51.644;8.494;2023-05-07T02:13:45;10.75;;;6.18;;
16354;SDS011;8287;51.644;8.494;2023-05-07T02:16:13;8.32;;;6.10;;
16354;SDS011;8287;51.644;8.494;2023-05-07T02:18:39;9.07;;;6.60;;
16354;SDS011;8287;51.644;8.494;2023-05-07T02:21:06;9.15;;;7.03;;
16354;SDS011;8287;51.644;8.494;2023-05-07T02:23:32;9.40;;;7.03;;
16354;SDS011;8287;51.644;8.494;2023-05-07T02:25:59;7.88;;;7.07;;
16354;SDS011;8287;51.644;8.494;2023-05-07T02:28:25;12.98;;;9.32;;
16354;SDS011;8287;51.644;8.494;2023-05-07T02:30:52;14.80;;;9.07;;
16354;SDS011;8287;51.644;8.494;2023-05-07T02:33:20;13.82;;;9.38;;
16354;SDS011;8287;51.644;8.494;2023-05-07T02:35:46;9.52;;;7.50;;
16354;SDS011;8287;51.644;8.494;2023-05-07T02:38:13;11.18;;;9.05;;
16354;SDS011;8287;51.644;8.494;2023-05-07T02:40:39;9.90;;;7.93;;
16354;SDS011;8287;51.644;8.494;2023-05-07T02:43:06;9.52;;;7.85;;
16354;SDS011;8287;51.644;8.494;2023-05-07T02:45:33;13.13;;;8.45;;
16354;SDS011;8287;51.644;8.494;2023-05-07T02:47:59;10.13;;;7.13;;
16354;SDS011;8287;51.644;8.494;2023-05-07T02:50:27;9.35;;;7.47;;
16354;SDS011;8287;51.644;8.494;2023-05-07T02:52:54;7.85;;;7.05;;
16354;SDS011;8287;51.644;8.494;2023-05-07T02:55:21;7.90;;;7.15;;
16354;SDS011;8287;51.644;8.494;2023-05-07T02:57:48;8.68;;;7.63;;
16354;SDS011;8287;51.644;8.494;2023-05-07T03:00:15;9.40;;;8.25;;
16354;SDS011;8287;51.644;8.494;2023-05-07T03:02:43;10.02;;;8.32;;
16354;SDS011;8287;51.644;8.494;2023-05-07T03:05:09;9.55;;;7.82;;
16354;SDS011;8287;51.644;8.494;2023-05-07T03:07:38;9.63;;;8.63;;
16354;SDS011;8287;51.644;8.494;2023-05-07T03:10:05;11.35;;;9.43;;
16354;SDS011;8287;51.644;8.494;2023-05-07T03:12:32;13.75;;;10.23;;
16354;SDS011;8287;51.644;8.494;2023-05-07T03:14:58;14.32;;;11.73;;
16354;SDS011;8287;51.644;8.494;2023-05-07T03:17:25;14.05;;;11.77;;
16354;SDS011;8287;51.644;8.494;2023-05-07T03:19:51;13.73;;;11.75;;
16354;SDS011;8287;51.644;8.494;2023-05-07T03:22:18;16.00;;;12.32;;
16354;SDS011;8287;51.644;8.494;2023-05-07T03:24:46;14.63;;;11.80;;
16354;SDS011;8287;51.644;8.494;2023-05-07T03:27:12;13.52;;;11.55;;
16354;SDS011;8287;51.644;8.494;2023-05-07T03:29:39;11.48;;;10.27;;
16354;SDS011;8287;51.644;8.494;2023-05-07T03:32:05;14.43;;;12.40;;
16354;SDS011;8287;51.644;8.494;2023-05-07T03:34:32;13.95;;;11.77;;
16354;SDS011;8287;51.644;8.494;2023-05-07T03:36:58;14.30;;;11.75;;
16354;SDS011;8287;51.644;8.494;2023-05-07T03:39:25;19.30;;;14.77;;
16354;SDS011;8287;51.644;8.494;2023-05-07T03:41:53;18.25;;;14.98;;
16354;SDS011;8287;51.644;8.494;2023-05-07T03:44:19;17.67;;;14.75;;
16354;SDS011;8287;51.644;8.494;2023-05-07T03:46:46;16.55;;;13.93;;
16354;SDS011;8287;51.644;8.494;2023-05-07T03:49:12;16.55;;;13.80;;
16354;SDS011;8287;51.644;8.494;2023-05-07T03:51:39;16.20;;;13.32;;
16354;SDS011;8287;51.644;8.494;2023-05-07T03:54:05;20.33;;;15.23;;
16354;SDS011;8287;51.644;8.494;2023-05-07T03:56:32;20.88;;;15.23;;
16354;SDS011;8287;51.644;8.494;2023-05-07T03:59:00;19.70;;;15.45;;
16354;SDS011;8287;51.644;8.494;2023-05-07T04:01:27;19.60;;;14.25;;
16354;SDS011;8287;51.644;8.494;2023-05-07T04:03:53;23.48;;;16.15;;
16354;SDS011;8287;51.644;8.494;2023-05-07T04:06:20;21.48;;;14.85;;
16354;SDS011;8287;51.644;8.494;2023-05-07T04:08:47;18.52;;;15.93;;
16354;SDS011;8287;51.644;8.494;2023-05-07T04:11:13;18.30;;;14.68;;
16354;SDS011;8287;51.644;8.494;2023-05-07T04:13:40;20.17;;;16.70;;
16354;SDS011;8287;51.644;8.494;2023-05-07T04:16:08;22.65;;;16.45;;
16354;SDS011;8287;51.644;8.494;2023-05-07T04:18:34;24.85;;;20.50;;
16354;SDS011;8287;51.644;8.494;2023-05-07T04:21:01;25.30;;;17.20;;
16354;SDS011;8287;51.644;8.494;2023-05-07T04:23:27;21.58;;;17.48;;
16354;SDS011;8287;51.644;8.494;2023-05-07T04:25:54;21.77;;;16.95;;
16354;SDS011;8287;51.644;8.494;2023-05-07T04:28:21;26.02;;;19.95;;
16354;SDS011;8287;51.644;8.494;2023-05-07T04:30:47;24.08;;;17.48;;
16354;SDS011;8287;51.644;8.494;2023-05-07T04:33:15;23.38;;;17.88;;
16354;SDS011;8287;51.644;8.494;2023-05-07T04:35:42;24.73;;;18.33;;
16354;SDS011;8287;51.644;8.494;2023-05-07T04:38:10;23.88;;;19.20;;
16354;SDS011;8287;51.644;8.494;2023-05-07T04:40:36;25.75;;;19.80;;
16354;SDS011;8287;51.644;8.494;2023-05-07T04:43:04;19.83;;;15.50;;
16354;SDS011;8287;51.644;8.494;2023-05-07T04:45:30;19.98;;;16.73;;
16354;SDS011;8287;51.644;8.494;2023-05-07T04:47:57;22.38;;;17.20;;
16354;SDS011;8287;51.644;8.494;2023-05-07T04:50:25;23.30;;;18.15;;
16354;SDS011;8287;51.644;8.494;2023-05-07T04:52:51;22.27;;;18.40;;
16354;SDS011;8287;51.644;8.494;2023-05-07T04:55:18;27.63;;;19.20;;
16354;SDS011;8287;51.644;8.494;2023-05-07T04:57:44;24.92;;;18.50;;
16354;SDS011;8287;51.644;8.494;2023-05-07T05:00:11;24.00;;;18.25;;
16354;SDS011;8287;51.644;8.494;2023-05-07T05:02:39;23.05;;;18.27;;
16354;SDS011;8287;51.644;8.494;2023-05-07T05:05:06;24.60;;;18.98;;
16354;SDS011;8287;51.644;8.494;2023-05-07T05:07:35;25.58;;;18.00;;
16354;SDS011;8287;51.644;8.494;2023-05-07T05:10:01;25.00;;;20.08;;
16354;SDS011;8287;51.644;8.494;2023-05-07T05:12:28;24.00;;;19.08;;
16354;SDS011;8287;51.644;8.494;2023-05-07T05:14:55;25.90;;;19.00;;
16354;SDS011;8287;51.644;8.494;2023-05-07T05:17:22;31.83;;;20.20;;
16354;SDS011;8287;51.644;8.494;2023-05-07T05:19:48;32.00;;;19.58;;
16354;SDS011;8287;51.644;8.494;2023-05-07T05:22:15;24.90;;;17.63;;
16354;SDS011;8287;51.644;8.494;2023-05-07T05:24:43;23.50;;;18.67;;
16354;SDS011;8287;51.644;8.494;2023-05-07T05:27:10;27.58;;;19.83;;
16354;SDS011;8287;51.644;8.494;2023-05-07T05:29:36;28.35;;;20.73;;
16354;SDS011;8287;51.644;8.494;2023-05-07T05:32:03;26.38;;;19.45;;
16354;SDS011;8287;51.644;8.494;2023-05-07T05:34:30;31.27;;;21.00;;
16354;SDS011;8287;51.644;8.494;2023-05-07T05:36:58;30.30;;;20.95;;
16354;SDS011;8287;51.644;8.494;2023-05-07T05:39:25;30.88;;;21.95;;
16354;SDS011;8287;51.644;8.494;2023-05-07T05:41:53;29.13;;;21.00;;
16354;SDS011;8287;51.644;8.494;2023-05-07T05:44:19;32.72;;;21.50;;
16354;SDS011;8287;51.644;8.494;2023-05-07T05:46:46;27.50;;;20.88;;
16354;SDS011;8287;51.644;8.494;2023-05-07T05:49:14;29.60;;;20.13;;
16354;SDS011;8287;51.644;8.494;2023-05-07T05:51:41;29.10;;;20.83;;
16354;SDS011;8287;51.644;8.494;2023-05-07T05:54:08;26.15;;;20.88;;
16354;SDS011;8287;51.644;8.494;2023-05-07T05:56:34;30.63;;;21.02;;
16354;SDS011;8287;51.644;8.494;2023-05-07T05:59:02;27.73;;;19.58;;
16354;SDS011;8287;51.644;8.494;2023-05-07T06:01:29;28.67;;;20.63;;
16354;SDS011;8287;51.644;8.494;2023-05-07T06:03:55;26.58;;;18.55;;
16354;SDS011;8287;51.644;8.494;2023-05-07T06:06:22;25.75;;;20.02;;
16354;SDS011;8287;51.644;8.494;2023-05-07T06:08:49;26.85;;;19.35;;
16354;SDS011;8287;51.644;8.494;2023-05-07T06:11:15;27.05;;;19.73;;
16354;SDS011;8287;51.644;8.494;2023-05-07T06:13:42;29.33;;;21.45;;
16354;SDS011;8287;51.644;8.494;2023-05-07T06:16:10;24.73;;;18.33;;
16354;SDS011;8287;51.644;8.494;2023-05-07T06:18:36;26.42;;;19.70;;
16354;SDS011;8287;51.644;8.494;2023-05-07T06:21:03;29.70;;;21.17;;
16354;SDS011;8287;51.644;8.494;2023-05-07T06:23:30;29.40;;;20.30;;
16354;SDS011;8287;51.644;8.494;2023-05-07T06:25:56;29.33;;;20.23;;
16354;SDS011;8287;51.644;8.494;2023-05-07T06:28:23;28.25;;;20.73;;
16354;SDS011;8287;51.644;8.494;2023-05-07T06:30:50;26.08;;;19.52;;
16354;SDS011;8287;51.644;8.494;2023-05-07T06:33:17;29.27;;;21.42;;
16354;SDS011;8287;51.644;8.494;2023-05-07T06:35:44;30.48;;;20.95;;
16354;SDS011;8287;51.644;8.494;2023-05-07T06:38:11;28.40;;;21.20;;
16354;SDS011;8287;51.644;8.494;2023-05-07T06:40:38;26.23;;;20.95;;
16354;SDS011;8287;51.644;8.494;2023-05-07T06:43:04;28.83;;;21.08;;
16354;SDS011;8287;51.644;8.494;2023-05-07T06:45:31;24.42;;;18.63;;
16354;SDS011;8287;51.644;8.494;2023-05-07T06:47:57;23.63;;;19.00;;
16354;SDS011;8287;51.644;8.494;2023-05-07T06:50:26;22.27;;;16.35;;
16354;SDS011;8287;51.644;8.494;2023-05-07T06:52:52;27.58;;;18.65;;
16354;SDS011;8287;51.644;8.494;2023-05-07T06:55:19;27.17;;;19.30;;
16354;SDS011;8287;51.644;8.494;2023-05-07T06:57:45;22.58;;;16.52;;
16354;SDS011;8287;51.644;8.494;2023-05-07T07:00:12;23.30;;;18.77;;
16354;SDS011;8287;51.644;8.494;2023-05-07T07:02:40;22.83;;;18.65;;
16354;SDS011;8287;51.644;8.494;2023-05-07T07:05:06;23.65;;;16.17;;
16354;SDS011;8287;51.644;8.494;2023-05-07T07:07:35;23.05;;;16.70;;
16354;SDS011;8287;51.644;8.494;2023-05-07T07:10:01;26.00;;;17.42;;
16354;SDS011;8287;51.644;8.494;2023-05-07T07:12:29;23.30;;;18.00;;
16354;SDS011;8287;51.644;8.494;2023-05-07T07:14:55;24.52;;;17.27;;
16354;SDS011;8287;51.644;8.494;2023-05-07T07:17:22;26.70;;;19.15;;
16354;SDS011;8287;51.644;8.494;2023-05-07T07:19:48;24.27;;;18.25;;
16354;SDS011;8287;51.644;8.494;2023-05-07T07:22:15;25.10;;;17.25;;
16354;SDS011;8287;51.644;8.494;2023-05-07T07:24:43;23.50;;;18.20;;
16354;SDS011;8287;51.644;8.494;2023-05-07T07:27:09;28.08;;;18.20;;
16354;SDS011;8287;51.644;8.494;2023-05-07T07:29:36;25.67;;;19.35;;
16354;SDS011;8287;51.644;8.494;2023-05-07T07:32:02;23.90;;;17.63;;
16354;SDS011;8287;51.644;8.494;2023-05-07T07:34:29;29.67;;;18.42;;
16354;SDS011;8287;51.644;8.494;2023-05-07T07:36:55;23.30;;;17.42;;
16354;SDS011;8287;51.644;8.494;2023-05-07T07:39:22;26.67;;;18.08;;
16354;SDS011;8287;51.644;8.494;2023-05-07T07:41:50;22.73;;;16.92;;
16354;SDS011;8287;51.644;8.494;2023-05-07T07:44:16;22.55;;;17.70;;
16354;SDS011;8287;51.644;8.494;2023-05-07T07:46:43;20.15;;;14.88;;
16354;SDS011;8287;51.644;8.494;2023-05-07T07:49:09;23.70;;;17.52;;
16354;SDS011;8287;51.644;8.494;2023-05-07T07:51:36;18.08;;;15.15;;
16354;SDS011;8287;51.644;8.494;2023-05-07T07:54:03;23.17;;;18.08;;
16354;SDS011;8287;51.644;8.494;2023-05-07T07:56:29;25.92;;;17.70;;
16354;SDS011;8287;51.644;8.494;2023-05-07T07:58:57;21.25;;;16.13;;
16354;SDS011;8287;51.644;8.494;2023-05-07T08:01:24;23.65;;;17.83;;
16354;SDS011;8287;51.644;8.494;2023-05-07T08:03:51;21.83;;;16.08;;
16354;SDS011;8287;51.644;8.494;2023-05-07T08:06:17;19.92;;;14.70;;
16354;SDS011;8287;51.644;8.494;2023-05-07T08:08:44;19.98;;;15.10;;
16354;SDS011;8287;51.644;8.494;2023-05-07T08:11:11;20.27;;;15.65;;
16354;SDS011;8287;51.644;8.494;2023-05-07T08:13:37;20.52;;;15.80;;
16354;SDS011;8287;51.644;8.494;2023-05-07T08:16:06;26.13;;;18.42;;
16354;SDS011;8287;51.644;8.494;2023-05-07T08:18:32;22.92;;;17.40;;
16354;SDS011;8287;51.644;8.494;2023-05-07T08:21:00;23.40;;;17.10;;
16354;SDS011;8287;51.644;8.494;2023-05-07T08:23:26;20.23;;;16.30;;
16354;SDS011;8287;51.644;8.494;2023-05-07T08:25:53;21.60;;;15.85;;
16354;SDS011;8287;51.644;8.494;2023-05-07T08:28:20;19.25;;;15.02;;
16354;SDS011;8287;51.644;8.494;2023-05-07T08:30:47;22.25;;;16.02;;
16354;SDS011;8287;51.644;8.494;2023-05-07T08:33:14;18.25;;;14.88;;
16354;SDS011;8287;51.644;8.494;2023-05-07T08:35:41;23.50;;;16.23;;
16354;SDS011;8287;51.644;8.494;2023-05-07T08:38:08;24.40;;;16.80;;
16354;SDS011;8287;51.644;8.494;2023-05-07T08:40:36;18.23;;;14.60;;
16354;SDS011;8287;51.644;8.494;2023-05-07T08:43:04;21.25;;;15.07;;
16354;SDS011;8287;51.644;8.494;2023-05-07T08:45:32;20.67;;;15.55;;
16354;SDS011;8287;51.644;8.494;2023-05-07T08:48:01;18.58;;;14.32;;
16354;SDS011;8287;51.644;8.494;2023-05-07T08:50:30;17.23;;;13.70;;
16354;SDS011;8287;51.644;8.494;2023-05-07T08:52:57;17.90;;;14.02;;
16354;SDS011;8287;51.644;8.494;2023-05-07T08:55:23;20.48;;;13.30;;
16354;SDS011;8287;51.644;8.494;2023-05-07T08:57:50;17.95;;;14.02;;
16354;SDS011;8287;51.644;8.494;2023-05-07T09:00:18;15.00;;;11.75;;
16354;SDS011;8287;51.644;8.494;2023-05-07T09:02:44;15.65;;;13.10;;
16354;SDS011;8287;51.644;8.494;2023-05-07T09:05:11;19.50;;;14.02;;
16354;SDS011;8287;51.644;8.494;2023-05-07T09:07:39;16.67;;;13.93;;
16354;SDS011;8287;51.644;8.494;2023-05-07T09:10:06;18.10;;;14.50;;
16354;SDS011;8287;51.644;8.494;2023-05-07T09:12:33;17.73;;;12.95;;
16354;SDS011;8287;51.644;8.494;2023-05-07T09:15:01;15.57;;;13.93;;
16354;SDS011;8287;51.644;8.494;2023-05-07T09:17:28;16.40;;;13.75;;
16354;SDS011;8287;51.644;8.494;2023-05-07T09:19:54;19.25;;;13.60;;
16354;SDS011;8287;51.644;8.494;2023-05-07T09:22:23;13.98;;;12.07;;
16354;SDS011;8287;51.644;8.494;2023-05-07T09:24:52;17.65;;;12.98;;
16354;SDS011;8287;51.644;8.494;2023-05-07T09:27:19;16.23;;;12.60;;
16354;SDS011;8287;51.644;8.494;2023-05-07T09:29:45;15.40;;;12.65;;
16354;SDS011;8287;51.644;8.494;2023-05-07T09:32:12;15.02;;;11.82;;
16354;SDS011;8287;51.644;8.494;2023-05-07T09:34:41;16.00;;;13.27;;
16354;SDS011;8287;51.644;8.494;2023-05-07T09:37:08;13.68;;;11.43;;
16354;SDS011;8287;51.644;8.494;2023-05-07T09:39:38;13.38;;;11.38;;
16354;SDS011;8287;51.644;8.494;2023-05-07T09:42:07;18.67;;;12.45;;
16354;SDS011;8287;51.644;8.494;2023-05-07T09:44:34;20.13;;;13.20;;
16354;SDS011;8287;51.644;8.494;2023-05-07T09:47:01;15.00;;;11.27;;
16354;SDS011;8287;51.644;8.494;2023-05-07T09:49:31;13.90;;;11.80;;
16354;SDS011;8287;51.644;8.494;2023-05-07T09:52:00;12.73;;;11.05;;
16354;SDS011;8287;51.644;8.494;2023-05-07T09:54:28;13.45;;;11.43;;
16354;SDS011;8287;51.644;8.494;2023-05-07T09:56:56;13.88;;;11.23;;
16354;SDS011;8287;51.644;8.494;2023-05-07T09:59:26;13.20;;;11.05;;
16354;SDS011;8287;51.644;8.494;2023-05-07T10:01:54;14.05;;;11.30;;
16354;SDS011;8287;51.644;8.494;2023-05-07T10:04:26;12.05;;;10.25;;
16354;SDS011;8287;51.644;8.494;2023-05-07T10:06:56;11.57;;;9.60;;
16354;SDS011;8287;51.644;8.494;2023-05-07T10:09:23;11.77;;;10.50;;
16354;SDS011;8287;51.644;8.494;2023-05-07T10:11:56;13.27;;;11.15;;
16354;SDS011;8287;51.644;8.494;2023-05-07T10:14:25;11.85;;;10.63;;
16354;SDS011;8287;51.644;8.494;2023-05-07T10:16:54;12.07;;;10.48;;
16354;SDS011;8287;51.644;8.494;2023-05-07T10:19:21;10.82;;;9.70;;
16354;SDS011;8287;51.644;8.494;2023-05-07T10:21:51;11.20;;;9.65;;
16354;SDS011;8287;51.644;8.494;2023-05-07T10:24:22;12.02;;;9.35;;
16354;SDS011;8287;51.644;8.494;2023-05-07T10:26:53;13.85;;;10.05;;
16354;SDS011;8287;51.644;8.494;2023-05-07T10:29:31;11.70;;;9.63;;
16354;SDS011;8287;51.644;8.494;2023-05-07T10:32:08;11.70;;;9.75;;
16354;SDS011;8287;51.644;8.494;2023-05-07T10:34:53;10.82;;;9.57;;
16354;SDS011;8287;51.644;8.494;2023-05-07T10:37:22;13.13;;;10.52;;
16354;SDS011;8287;51.644;8.494;2023-05-07T10:39:49;10.63;;;8.95;;
16354;SDS011;8287;51.644;8.494;2023-05-07T10:42:16;10.98;;;9.27;;
16354;SDS011;8287;51.644;8.494;2023-05-07T10:44:44;12.18;;;9.32;;
16354;SDS011;8287;51.644;8.494;2023-05-07T10:47:12;8.10;;;6.78;;
16354;SDS011;8287;51.644;8.494;2023-05-07T10:58:51;9.32;;;7.72;;
16354;SDS011;8287;51.644;8.494;2023-05-07T11:01:26;8.75;;;7.82;;
16354;SDS011;8287;51.644;8.494;2023-05-07T11:04:16;8.63;;;7.25;;
16354;SDS011;8287;51.644;8.494;2023-05-07T11:09:55;7.03;;;6.22;;
16354;SDS011;8287;51.644;8.494;2023-05-07T11:15:35;6.88;;;5.57;;
16354;SDS011;8287;51.644;8.494;2023-05-07T11:18:08;6.13;;;5.50;;
16354;SDS011;8287;51.644;8.494;2023-05-07T11:20:46;6.57;;;5.75;;
16354;SDS011;8287;51.644;8.494;2023-05-07T11:26:31;6.32;;;5.72;;
16354;SDS011;8287;51.644;8.494;2023-05-07T11:29:22;6.90;;;5.97;;
16354;SDS011;8287;51.644;8.494;2023-05-07T11:31:54;7.90;;;7.03;;
16354;SDS011;8287;51.644;8.494;2023-05-07T11:34:24;7.35;;;6.10;;
16354;SDS011;8287;51.644;8.494;2023-05-07T11:36:52;6.75;;;6.15;;
16354;SDS011;8287;51.644;8.494;2023-05-07T11:39:23;6.72;;;6.03;;
16354;SDS011;8287;51.644;8.494;2023-05-07T11:41:53;6.88;;;6.18;;
16354;SDS011;8287;51.644;8.494;2023-05-07T11:44:20;6.72;;;6.03;;
16354;SDS011;8287;51.644;8.494;2023-05-07T11:46:49;8.93;;;6.88;;
16354;SDS011;8287;51.644;8.494;2023-05-07T11:49:18;8.52;;;6.65;;
16354;SDS011;8287;51.644;8.494;2023-05-07T11:51:46;8.80;;;7.90;;
16354;SDS011;8287;51.644;8.494;2023-05-07T11:54:15;8.40;;;6.78;;
16354;SDS011;8287;51.644;8.494;2023-05-07T11:56:43;8.75;;;6.80;;
16354;SDS011;8287;51.644;8.494;2023-05-07T11:59:28;9.45;;;6.40;;
16354;SDS011;8287;51.644;8.494;2023-05-07T12:02:09;7.65;;;6.93;;
16354;SDS011;8287;51.644;8.494;2023-05-07T12:04:37;7.47;;;6.68;;
16354;SDS011;8287;51.644;8.494;2023-05-07T12:07:12;7.57;;;6.82;;
16354;SDS011;8287;51.644;8.494;2023-05-07T12:09:39;7.32;;;5.82;;
16354;SDS011;8287;51.644;8.494;2023-05-07T12:12:05;6.70;;;5.90;;
16354;SDS011;8287;51.644;8.494;2023-05-07T12:14:32;7.13;;;6.47;;
16354;SDS011;8287;51.644;8.494;2023-05-07T12:17:03;6.57;;;5.97;;
16354;SDS011;8287;51.644;8.494;2023-05-07T12:19:30;7.07;;;6.20;;
16354;SDS011;8287;51.644;8.494;2023-05-07T12:21:57;6.32;;;5.70;;
16354;SDS011;8287;51.644;8.494;2023-05-07T12:24:26;6.40;;;5.80;;
16354;SDS011;8287;51.644;8.494;2023-05-07T12:26:52;13.38;;;6.22;;
16354;SDS011;8287;51.644;8.494;2023-05-07T12:29:21;6.20;;;5.57;;
16354;SDS011;8287;51.644;8.494;2023-05-07T12:31:47;6.63;;;5.30;;
16354;SDS011;8287;51.644;8.494;2023-05-07T12:34:17;6.85;;;5.55;;
16354;SDS011;8287;51.644;8.494;2023-05-07T12:36:44;6.70;;;6.03;;
16354;SDS011;8287;51.644;8.494;2023-05-07T12:39:11;7.53;;;6.10;;
16354;SDS011;8287;51.644;8.494;2023-05-07T12:44:22;4.65;;;4.25;;
16354;SDS011;8287;51.644;8.494;2023-05-07T12:46:49;6.93;;;5.13;;
16354;SDS011;8287;51.644;8.494;2023-05-07T12:49:15;7.45;;;6.05;;
16354;SDS011;8287;51.644;8.494;2023-05-07T12:51:46;4.95;;;4.47;;
16354;SDS011;8287;51.644;8.494;2023-05-07T12:54:13;5.40;;;4.88;;
16354;SDS011;8287;51.644;8.494;2023-05-07T12:56:39;5.22;;;4.72;;
16354;SDS011;8287;51.644;8.494;2023-05-07T12:59:07;5.55;;;4.50;;
16354;SDS011;8287;51.644;8.494;2023-05-07T13:01:34;5.20;;;4.70;;
16354;SDS011;8287;51.644;8.494;2023-05-07T13:04:00;4.55;;;4.00;;
16354;SDS011;8287;51.644;8.494;2023-05-07T13:06:29;5.70;;;5.10;;
16354;SDS011;8287;51.644;8.494;2023-05-07T13:08:56;4.03;;;3.72;;
16354;SDS011;8287;51.644;8.494;2023-05-07T13:11:23;4.78;;;4.38;;
16354;SDS011;8287;51.644;8.494;2023-05-07T13:13:50;5.88;;;5.28;;
16354;SDS011;8287;51.644;8.494;2023-05-07T13:16:18;6.70;;;6.00;;
16354;SDS011;8287;51.644;8.494;2023-05-07T13:18:44;3.97;;;3.47;;
16354;SDS011;8287;51.644;8.494;2023-05-07T13:21:11;4.55;;;4.15;;
16354;SDS011;8287;51.644;8.494;2023-05-07T13:23:38;4.85;;;4.45;;
16354;SDS011;8287;51.644;8.494;2023-05-07T13:26:05;4.00;;;3.63;;
16354;SDS011;8287;51.644;8.494;2023-05-07T13:28:32;4.10;;;3.70;;
16354;SDS011;8287;51.644;8.494;2023-05-07T13:31:02;5.78;;;3.67;;
16354;SDS011;8287;51.644;8.494;2023-05-07T13:33:30;6.18;;;4.00;;
16354;SDS011;8287;51.644;8.494;2023-05-07T13:36:01;5.03;;;4.53;;
16354;SDS011;8287;51.644;8.494;2023-05-07T13:38:29;3.85;;;3.45;;
16354;SDS011;8287;51.644;8.494;2023-05-07T13:40:56;4.22;;;3.45;;
16354;SDS011;8287;51.644;8.494;2023-05-07T13:43:24;4.22;;;3.83;;
16354;SDS011;8287;51.644;8.494;2023-05-07T13:45:51;5.78;;;3.90;;
16354;SDS011;8287;51.644;8.494;2023-05-07T13:48:17;3.97;;;3.58;;
16354;SDS011;8287;51.644;8.494;2023-05-07T13:50:45;4.28;;;3.83;;
16354;SDS011;8287;51.644;8.494;2023-05-07T13:53:12;3.08;;;2.80;;
16354;SDS011;8287;51.644;8.494;2023-05-07T13:55:40;5.65;;;3.03;;
16354;SDS011;8287;51.644;8.494;2023-05-07T13:58:07;3.55;;;3.20;;
16354;SDS011;8287;51.644;8.494;2023-05-07T14:00:33;3.95;;;3.60;;
16354;SDS011;8287;51.644;8.494;2023-05-07T14:03:00;4.50;;;4.10;;
16354;SDS011;8287;51.644;8.494;2023-05-07T14:05:27;14.43;;;3.40;;
16354;SDS011;8287;51.644;8.494;2023-05-07T14:07:55;4.05;;;2.70;;
16354;SDS011;8287;51.644;8.494;2023-05-07T14:10:23;3.58;;;3.28;;
16354;SDS011;8287;51.644;8.494;2023-05-07T14:12:51;3.40;;;3.10;;
16354;SDS011;8287;51.644;8.494;2023-05-07T14:15:19;4.10;;;3.10;;
16354;SDS011;8287;51.644;8.494;2023-05-07T14:17:45;3.13;;;2.92;;
16354;SDS011;8287;51.644;8.494;2023-05-07T14:20:12;3.80;;;3.50;;
16354;SDS011;8287;51.644;8.494;2023-05-07T14:22:39;3.85;;;3.30;;
16354;SDS011;8287;51.644;8.494;2023-05-07T14:25:10;4.05;;;3.75;;
16354;SDS011;8287;51.644;8.494;2023-05-07T14:27:36;3.80;;;3.40;;
16354;SDS011;8287;51.644;8.494;2023-05-07T14:30:03;3.80;;;3.40;;
16354;SDS011;8287;51.644;8.494;2023-05-07T14:32:31;4.47;;;3.90;;
16354;SDS011;8287;51.644;8.494;2023-05-07T14:34:58;4.40;;;3.70;;
16354;SDS011;8287;51.644;8.494;2023-05-07T14:37:25;6.28;;;5.35;;
16354;SDS011;8287;51.644;8.494;2023-05-07T14:39:51;6.22;;;5.38;;
16354;SDS011;8287;51.644;8.494;2023-05-07T14:42:19;6.75;;;6.05;;
16354;SDS011;8287;51.644;8.494;2023-05-07T14:44:46;7.00;;;6.30;;
16354;SDS011;8287;51.644;8.494;2023-05-07T14:47:13;8.00;;;6.47;;
16354;SDS011;8287;51.644;8.494;2023-05-07T14:49:40;8.25;;;7.40;;
16354;SDS011;8287;51.644;8.494;2023-05-07T14:52:07;8.40;;;7.32;;
16354;SDS011;8287;51.644;8.494;2023-05-07T14:54:35;9.32;;;7.38;;
16354;SDS011;8287;51.644;8.494;2023-05-07T14:57:04;8.80;;;7.75;;
16354;SDS011;8287;51.644;8.494;2023-05-07T14:59:33;8.10;;;7.30;;
16354;SDS011;8287;51.644;8.494;2023-05-07T15:02:00;8.88;;;7.25;;
16354;SDS011;8287;51.644;8.494;2023-05-07T15:04:27;7.50;;;6.82;;
16354;SDS011;8287;51.644;8.494;2023-05-07T15:06:53;9.55;;;8.18;;
16354;SDS011;8287;51.644;8.494;2023-05-07T15:09:21;8.95;;;8.10;;
16354;SDS011;8287;51.644;8.494;2023-05-07T15:11:47;8.40;;;7.60;;